Time;durP1;ratioP1;P1;durP2;ratioP2;P2;SDS_P1;SDS_P2;PMS_P1;PMS_P2;Temp;Humidity;BMP_temperature;BMP_pressure;BME280_temperature;BME280_humidity;BME280_pressure;Samples;Min_cycle;Max_cycle;Signal;HPM_P1;HPM_P2
2023/10/30 00:00:39;;;;;;;7.77;2.47;;;;;;;19.46;59.37;99376.84;6189525;23;20169;-88
2023/10/30 00:03:04;;;;;;;7.43;2.67;;;;;;;19.42;59.50;99381.56;6189317;23;20555;-88
2023/10/30 00:05:30;;;;;;;8.13;3.03;;;;;;;19.53;59.64;99375.34;6189406;23;20153;-88
2023/10/30 00:07:55;;;;;;;8.70;2.60;;;;;;;19.49;59.77;99373.94;6189537;23;20184;-89
2023/10/30 00:10:21;;;;;;;8.60;3.10;;;;;;;19.35;60.87;99372.41;6215683;23;20172;-88
2023/10/30 00:12:47;;;;;;;5.77;2.93;;;;;;;19.25;61.68;99376.81;6189469;23;20156;-88
2023/10/30 00:15:13;;;;;;;7.17;2.47;;;;;;;19.21;62.15;99371.91;6189244;23;20268;-88
2023/10/30 00:17:38;;;;;;;5.73;2.40;;;;;;;19.18;62.42;99361.53;6215868;23;20218;-88
2023/10/30 00:20:05;;;;;;;9.10;2.63;;;;;;;19.22;62.74;99368.25;6216114;23;20153;-88
2023/10/30 00:22:31;;;;;;;5.60;2.60;;;;;;;19.21;62.45;99371.91;6215687;23;20236;-88
2023/10/30 00:24:56;;;;;;;7.20;3.20;;;;;;;19.27;61.69;99377.53;6215675;23;20537;-88
2023/10/30 00:27:22;;;;;;;5.30;2.57;;;;;;;19.27;61.32;99371.38;6215684;23;20248;-88
2023/10/30 00:29:47;;;;;;;6.07;2.37;;;;;;;19.24;61.33;99379.59;6216077;23;20150;-88
2023/10/30 00:32:13;;;;;;;7.30;2.87;;;;;;;19.42;61.36;99378.06;6215618;23;20146;-88
2023/10/30 00:34:39;;;;;;;6.93;3.07;;;;;;;19.34;61.61;99373.38;6215339;23;20262;-88
2023/10/30 00:37:05;;;;;;;5.37;2.37;;;;;;;19.27;61.82;99376.69;6215608;23;20595;-88
2023/10/30 00:39:32;;;;;;;4.97;3.17;;;;;;;19.30;61.63;99376.44;6215623;23;20225;-89
2023/10/30 00:41:59;;;;;;;7.77;2.40;;;;;;;19.21;61.37;99372.72;6215317;23;20152;-88
2023/10/30 00:44:25;;;;;;;7.23;3.00;;;;;;;19.17;61.41;99373.97;6215487;23;20146;-88
2023/10/30 00:46:53;;;;;;;10.90;2.23;;;;;;;19.11;61.46;99369.16;6216067;23;20549;-88
2023/10/30 00:49:18;;;;;;;7.60;2.47;;;;;;;19.07;61.74;99378.38;6215390;23;20184;-88
2023/10/30 00:51:44;;;;;;;8.23;2.70;;;;;;;19.06;61.79;99374.00;6215347;23;20232;-88
2023/10/30 00:54:09;;;;;;;6.83;2.67;;;;;;;19.03;62.26;99382.22;6215670;23;20181;-88
2023/10/30 00:56:35;;;;;;;5.07;2.50;;;;;;;19.04;62.45;99383.94;6215153;23;20149;-88
2023/10/30 00:59:00;;;;;;;5.20;2.60;;;;;;;19.07;62.56;99372.22;6189143;23;20223;-89
2023/10/30 01:01:26;;;;;;;8.17;2.53;;;;;;;19.10;62.99;99374.59;6189107;23;20430;-88
2023/10/30 01:03:51;;;;;;;12.10;2.90;;;;;;;19.07;62.99;99374.88;6215229;23;20211;-89
2023/10/30 01:06:17;;;;;;;7.43;3.07;;;;;;;19.05;62.73;99371.50;6215326;23;20146;-88
2023/10/30 01:08:42;;;;;;;6.10;2.57;;;;;;;19.00;62.60;99375.38;6189440;23;20166;-88
2023/10/30 01:11:09;;;;;;;6.03;2.97;;;;;;;19.06;62.62;99375.81;6215071;23;20172;-88
2023/10/30 01:13:36;;;;;;;3.90;1.90;;;;;;;19.13;62.21;99377.00;6188802;23;20268;-89
2023/10/30 01:16:02;;;;;;;6.40;3.00;;;;;;;19.15;62.28;99377.72;6188533;23;20156;-88
2023/10/30 01:18:28;;;;;;;8.80;2.63;;;;;;;19.14;62.20;99376.88;6189078;23;20296;-88
2023/10/30 01:20:55;;;;;;;8.03;2.60;;;;;;;19.18;62.03;99380.13;6214976;23;20541;-88
2023/10/30 01:23:21;;;;;;;8.97;3.10;;;;;;;19.18;62.29;99388.09;6189359;23;20204;-88
2023/10/30 01:25:47;;;;;;;7.03;2.30;;;;;;;19.17;62.21;99389.91;6188927;23;20157;-88
2023/10/30 01:28:13;;;;;;;8.67;2.17;;;;;;;19.09;62.04;99386.19;6215288;23;20572;-88
2023/10/30 01:30:39;;;;;;;5.30;2.40;;;;;;;18.90;60.69;99395.69;6215012;23;20148;-88
2023/10/30 01:33:04;;;;;;;4.80;2.57;;;;;;;18.97;59.53;99399.53;6215234;23;20158;-88
2023/10/30 01:35:30;;;;;;;5.43;1.90;;;;;;;18.86;59.11;99394.28;6215484;23;20174;-88
2023/10/30 01:37:56;;;;;;;4.63;2.47;;;;;;;18.81;58.75;99391.16;6215037;23;20152;-88
2023/10/30 01:40:21;;;;;;;5.00;2.20;;;;;;;18.73;58.39;99390.94;6215833;23;20223;-88
2023/10/30 01:42:47;;;;;;;10.17;2.17;;;;;;;18.69;58.29;99393.94;6215286;23;20146;-87
2023/10/30 01:45:12;;;;;;;7.27;2.47;;;;;;;18.63;58.43;99397.13;6188817;23;20510;-88
2023/10/30 01:47:38;;;;;;;6.10;2.20;;;;;;;18.60;58.73;99400.88;6189020;23;20153;-88
2023/10/30 01:50:06;;;;;;;4.33;1.90;;;;;;;18.53;58.58;99396.16;6188674;23;20214;-88
2023/10/30 01:52:32;;;;;;;6.90;2.27;;;;;;;18.42;58.66;99399.69;6188934;23;20239;-88
2023/10/30 01:54:58;;;;;;;6.73;2.63;;;;;;;18.39;58.74;99394.59;6215085;23;20177;-88
2023/10/30 01:57:26;;;;;;;6.53;2.33;;;;;;;18.38;58.48;99392.91;6188877;23;20240;-88
2023/10/30 01:59:52;;;;;;;5.77;2.77;;;;;;;18.31;58.87;99395.22;6215073;23;20152;-88
2023/10/30 02:02:19;;;;;;;5.80;2.77;;;;;;;18.20;59.02;99392.59;6189164;23;20243;-88
2023/10/30 02:04:44;;;;;;;6.87;2.10;;;;;;;18.10;59.16;99388.97;6214906;23;20153;-88
2023/10/30 02:07:11;;;;;;;5.37;2.87;;;;;;;18.13;59.17;99391.34;6215230;23;20196;-88
2023/10/30 02:09:37;;;;;;;9.03;2.83;;;;;;;18.15;58.73;99385.94;6215170;23;20252;-88
2023/10/30 02:12:03;;;;;;;4.83;2.00;;;;;;;18.04;58.84;99383.28;6215241;23;20253;-88
2023/10/30 02:14:28;;;;;;;4.20;2.30;;;;;;;17.98;58.85;99389.06;6188399;23;20198;-88
2023/10/30 02:16:54;;;;;;;7.20;3.17;;;;;;;17.92;58.96;99390.44;6215618;23;20160;-88
2023/10/30 02:19:24;;;;;;;5.13;2.37;;;;;;;17.87;58.82;99394.41;6214880;23;20239;-88
2023/10/30 02:21:52;;;;;;;7.47;2.67;;;;;;;17.89;58.59;99400.41;6215428;23;20214;-88
2023/10/30 02:24:19;;;;;;;6.70;2.33;;;;;;;17.93;58.46;99396.56;6214728;23;20633;-88
2023/10/30 02:26:46;;;;;;;9.37;2.33;;;;;;;17.88;58.59;99396.06;6190404;23;20524;-88
2023/10/30 02:29:11;;;;;;;7.97;3.20;;;;;;;17.77;58.89;99389.81;6216561;23;20150;-87
2023/10/30 02:31:37;;;;;;;5.27;2.50;;;;;;;17.75;58.65;99399.69;6216808;23;20149;-88
2023/10/30 02:34:02;;;;;;;4.97;2.37;;;;;;;17.69;58.97;99401.97;6190846;23;20192;-88
2023/10/30 02:36:28;;;;;;;5.83;1.97;;;;;;;17.70;58.79;99401.00;6216475;23;20147;-88
2023/10/30 02:38:54;;;;;;;6.13;2.30;;;;;;;17.64;58.93;99399.66;6217033;23;20585;-88
2023/10/30 02:41:20;;;;;;;6.90;3.50;;;;;;;17.60;59.46;99400.88;6190451;23;20158;-88
2023/10/30 02:43:46;;;;;;;6.07;3.30;;;;;;;17.50;59.26;99399.03;6190450;23;20176;-88
2023/10/30 02:46:11;;;;;;;9.40;3.80;;;;;;;17.47;59.76;99393.97;6216631;23;20531;-88
2023/10/30 02:48:36;;;;;;;12.63;3.87;;;;;;;17.45;60.25;99390.59;6216650;23;20150;-88
2023/10/30 02:51:02;;;;;;;7.83;3.70;;;;;;;17.47;60.07;99391.31;6190462;23;20190;-88
2023/10/30 02:53:27;;;;;;;5.37;2.77;;;;;;;17.43;60.10;99389.84;6216474;23;20150;-88
2023/10/30 02:55:53;;;;;;;5.60;3.03;;;;;;;17.40;60.41;99393.56;6216653;23;20146;-88
2023/10/30 02:58:19;;;;;;;9.27;3.53;;;;;;;17.37;60.38;99388.53;6190299;23;20150;-88
2023/10/30 03:00:44;;;;;;;5.63;2.70;;;;;;;17.39;60.33;99396.34;6216808;23;20156;-88
2023/10/30 03:03:10;;;;;;;5.67;3.23;;;;;;;17.46;60.18;99392.25;6216530;23;20149;-88
2023/10/30 03:05:35;;;;;;;8.30;2.80;;;;;;;17.44;60.27;99395.03;6190654;23;20496;-87
2023/10/30 03:08:01;;;;;;;7.93;2.93;;;;;;;17.57;60.23;99406.41;6216271;23;20520;-88
2023/10/30 03:10:30;;;;;;;5.13;2.90;;;;;;;17.65;60.04;99401.38;6190005;23;20235;-88
2023/10/30 03:12:55;;;;;;;7.13;2.80;;;;;;;17.61;60.40;99402.56;6216031;23;20602;-88
2023/10/30 03:15:21;;;;;;;9.77;2.97;;;;;;;17.47;61.08;99400.09;6216640;23;20184;-87
2023/10/30 03:17:46;;;;;;;5.77;2.70;;;;;;;17.48;61.07;99412.38;6216446;23;20153;-87
2023/10/30 03:20:13;;;;;;;7.53;2.40;;;;;;;17.33;61.29;99410.91;6189924;23;20156;-87
2023/10/30 03:22:38;;;;;;;9.73;2.37;;;;;;;17.26;61.59;99414.97;6190028;23;20157;-87
2023/10/30 03:25:04;;;;;;;8.67;3.30;;;;;;;17.32;61.61;99417.16;6216287;23;20188;-88
2023/10/30 03:27:30;;;;;;;4.03;2.50;;;;;;;17.41;60.90;99416.47;6189979;23;20189;-88
2023/10/30 03:29:55;;;;;;;7.00;2.77;;;;;;;17.40;61.02;99424.53;6216579;23;20561;-88
2023/10/30 03:32:21;;;;;;;10.50;2.67;;;;;;;17.35;60.88;99419.56;6189903;23;20184;-87
2023/10/30 03:34:47;;;;;;;5.07;2.63;;;;;;;17.14;61.55;99419.38;6216479;23;20173;-88
2023/10/30 03:37:12;;;;;;;12.03;3.10;;;;;;;17.18;61.57;99423.50;6215538;23;20157;-87
2023/10/30 03:39:37;;;;;;;7.00;2.67;;;;;;;17.01;61.86;99417.75;6189793;23;20161;-87
2023/10/30 03:42:03;;;;;;;8.40;2.80;;;;;;;17.02;61.99;99411.50;6215900;23;20173;-87
2023/10/30 03:44:29;;;;;;;8.97;2.70;;;;;;;17.09;61.54;99418.03;6189858;23;20150;-88
2023/10/30 03:46:54;;;;;;;4.43;2.70;;;;;;;16.94;62.24;99413.88;6190010;23;20574;-87
2023/10/30 03:49:21;;;;;;;5.57;2.67;;;;;;;16.88;62.42;99411.69;6189618;23;20236;-90
2023/10/30 03:51:48;;;;;;;10.47;3.10;;;;;;;16.84;62.45;99411.09;6189867;23;20167;-90
2023/10/30 03:54:13;;;;;;;6.83;2.70;;;;;;;16.81;62.50;99415.75;6216120;23;20185;-89
2023/10/30 03:56:39;;;;;;;8.27;3.57;;;;;;;16.90;62.57;99415.09;6215994;23;20153;-89
2023/10/30 03:59:04;;;;;;;10.73;3.50;;;;;;;16.94;62.25;99411.25;6216009;23;20146;-89
2023/10/30 04:01:30;;;;;;;5.97;3.07;;;;;;;16.92;62.00;99413.16;6189589;23;20162;-89
2023/10/30 04:03:58;;;;;;;7.97;3.77;;;;;;;16.84;62.16;99407.59;6215962;23;20142;-90
2023/10/30 04:06:24;;;;;;;7.53;3.77;;;;;;;16.87;62.21;99410.00;6189815;23;20162;-89
2023/10/30 04:08:49;;;;;;;9.97;3.83;;;;;;;16.79;62.12;99412.38;6215826;23;20508;-90
2023/10/30 04:11:16;;;;;;;8.90;4.37;;;;;;;16.77;62.14;99409.00;6215866;23;20226;-89
2023/10/30 04:13:41;;;;;;;9.00;4.17;;;;;;;16.79;62.19;99417.66;6215538;23;20498;-90
2023/10/30 04:16:10;;;;;;;9.60;3.70;;;;;;;16.78;61.97;99414.16;6215649;23;20164;-89
2023/10/30 04:18:36;;;;;;;6.17;3.53;;;;;;;16.75;61.91;99421.47;6215803;23;20511;-89
2023/10/30 04:21:02;;;;;;;9.30;3.93;;;;;;;16.72;61.77;99419.91;6215736;23;20150;-89
2023/10/30 04:23:27;;;;;;;9.10;3.53;;;;;;;16.73;61.81;99415.47;6215592;23;20224;-89
2023/10/30 04:25:53;;;;;;;7.70;3.57;;;;;;;16.70;62.03;99428.91;6189929;23;20181;-89
2023/10/30 04:28:18;;;;;;;7.60;3.00;;;;;;;16.63;62.07;99422.38;6215482;23;20149;-89
2023/10/30 04:30:44;;;;;;;5.77;3.13;;;;;;;16.57;62.25;99429.81;6215678;23;20150;-89
2023/10/30 04:33:09;;;;;;;8.33;3.80;;;;;;;16.51;62.34;99424.94;6215686;23;20163;-89
2023/10/30 04:35:35;;;;;;;5.90;3.13;;;;;;;16.73;61.66;99434.00;6216156;23;20205;-90
2023/10/30 04:38:00;;;;;;;8.03;2.87;;;;;;;16.72;61.61;99433.13;6215913;23;20146;-89
2023/10/30 04:40:26;;;;;;;10.03;3.13;;;;;;;16.78;61.59;99431.84;6215943;23;20153;-89
2023/10/30 04:42:51;;;;;;;11.07;3.37;;;;;;;16.78;61.41;99431.84;6215867;23;20150;-89
2023/10/30 04:45:17;;;;;;;5.73;3.20;;;;;;;16.76;61.15;99439.91;6215847;23;20146;-89
2023/10/30 04:47:43;;;;;;;6.90;3.30;;;;;;;16.76;61.48;99428.47;6215554;23;20592;-89
2023/10/30 04:50:09;;;;;;;9.97;3.50;;;;;;;16.65;61.80;99431.06;6215392;23;20208;-89
2023/10/30 04:52:34;;;;;;;7.00;3.20;;;;;;;16.61;62.11;99429.59;6189319;23;20165;-89
2023/10/30 04:55:00;;;;;;;6.87;3.30;;;;;;;16.71;61.92;99433.25;6215345;23;20263;-90
2023/10/30 04:57:25;;;;;;;8.97;3.43;;;;;;;16.66;62.14;99438.91;6216135;23;20146;-89
2023/10/30 04:59:51;;;;;;;7.83;3.67;;;;;;;16.66;62.52;99441.56;6215452;23;20145;-89
2023/10/30 05:02:16;;;;;;;10.23;3.43;;;;;;;16.71;62.47;99441.22;6189246;23;20157;-89
2023/10/30 05:04:42;;;;;;;9.03;3.13;;;;;;;16.70;62.80;99444.78;6215277;23;20157;-89
2023/10/30 05:07:07;;;;;;;5.53;3.50;;;;;;;16.73;62.46;99445.44;6216127;23;20210;-89
2023/10/30 05:09:33;;;;;;;6.80;3.20;;;;;;;16.75;62.94;99448.81;6215449;23;20176;-89
2023/10/30 05:11:59;;;;;;;7.37;3.57;;;;;;;16.81;62.66;99445.72;6215447;23;20154;-89
2023/10/30 05:14:26;;;;;;;8.67;3.40;;;;;;;16.78;63.01;99447.72;6215386;23;20261;-89
2023/10/30 05:16:52;;;;;;;7.57;3.40;;;;;;;16.78;63.12;99447.72;6215947;23;20150;-89
2023/10/30 05:19:17;;;;;;;8.77;3.13;;;;;;;16.83;63.41;99448.25;6215110;23;20163;-89
2023/10/30 05:21:43;;;;;;;15.80;3.17;;;;;;;16.93;63.59;99447.47;6189094;23;20157;-89
2023/10/30 05:24:09;;;;;;;6.93;3.30;;;;;;;17.03;63.52;99456.41;6215263;23;20152;-89
2023/10/30 05:26:34;;;;;;;7.93;3.00;;;;;;;17.09;63.09;99450.66;6215331;23;20156;-89
2023/10/30 05:29:00;;;;;;;9.80;3.73;;;;;;;17.19;63.01;99448.16;6189076;23;20153;-89
2023/10/30 05:31:25;;;;;;;8.73;3.03;;;;;;;17.26;62.97;99444.13;6189017;23;20152;-89
2023/10/30 05:33:51;;;;;;;8.40;2.87;;;;;;;17.35;62.62;99447.91;6215618;23;20314;-89
2023/10/30 05:36:16;;;;;;;8.03;3.40;;;;;;;17.39;61.90;99444.91;6215047;23;20157;-89
2023/10/30 05:38:41;;;;;;;15.13;2.73;;;;;;;17.47;62.08;99447.81;6189279;23;20160;-89
2023/10/30 05:41:07;;;;;;;7.93;2.70;;;;;;;17.57;61.81;99454.13;6188845;23;20158;-89
2023/10/30 05:43:32;;;;;;;6.27;2.30;;;;;;;17.51;62.22;99457.22;6215308;23;20608;-88
2023/10/30 05:45:58;;;;;;;8.30;2.53;;;;;;;17.73;61.28;99449.34;6215224;23;20582;-89
2023/10/30 05:48:24;;;;;;;9.73;2.87;;;;;;;17.94;60.62;99461.91;6215488;23;20147;-90
2023/10/30 05:50:50;;;;;;;6.30;1.80;;;;;;;18.21;59.42;99457.13;6215212;23;20151;-90
2023/10/30 05:53:16;;;;;;;7.33;2.63;;;;;;;18.52;58.62;99455.56;6215179;23;20230;-90
2023/10/30 05:55:43;;;;;;;6.73;2.33;;;;;;;18.77;57.48;99458.75;6215062;23;20179;-90
2023/10/30 05:58:09;;;;;;;5.33;2.10;;;;;;;19.09;57.13;99458.78;6215451;23;20153;-90
2023/10/30 06:00:35;;;;;;;8.43;2.07;;;;;;;19.61;55.38;99457.97;6215635;23;20146;-89
2023/10/30 06:03:00;;;;;;;6.23;2.53;;;;;;;20.29;53.49;99460.06;6190756;23;20231;-90
2023/10/30 06:05:26;;;;;;;5.93;3.00;;;;;;;21.23;50.20;99454.25;6217434;23;20152;-90
2023/10/30 06:07:52;;;;;;;8.70;3.10;;;;;;;21.75;48.68;99450.31;6217127;23;20146;-90
2023/10/30 06:10:20;;;;;;;8.93;2.70;;;;;;;21.86;47.65;99453.69;6217046;23;20225;-87
2023/10/30 06:12:47;;;;;;;6.80;1.97;;;;;;;21.68;47.76;99457.19;6190746;23;20150;-88
2023/10/30 06:15:13;;;;;;;4.27;1.80;;;;;;;21.60;48.57;99451.72;6216846;23;20227;-90
2023/10/30 06:17:39;;;;;;;4.80;1.63;;;;;;;21.70;48.46;99460.56;6190807;23;20154;-91
2023/10/30 06:20:06;;;;;;;4.80;1.83;;;;;;;22.08;47.84;99455.16;6216907;23;20215;-90
2023/10/30 06:22:32;;;;;;;6.27;1.93;;;;;;;22.55;45.86;99454.13;6190789;23;20177;-90
2023/10/30 06:25:00;;;;;;;8.33;2.03;;;;;;;22.99;45.34;99456.97;6216831;23;20142;-87
2023/10/30 06:27:26;;;;;;;8.17;2.37;;;;;;;23.93;43.56;99450.13;6216628;23;20150;-88
2023/10/30 06:29:52;;;;;;;3.20;1.53;;;;;;;24.87;41.76;99444.59;6216744;23;20146;-88
2023/10/30 06:32:17;;;;;;;6.67;1.67;;;;;;;25.41;40.46;99442.34;6217061;23;20156;-88
2023/10/30 06:34:43;;;;;;;6.67;2.00;;;;;;;25.94;39.26;99444.53;6217042;23;20493;-87
2023/10/30 06:37:09;;;;;;;4.30;1.60;;;;;;;26.62;38.71;99447.53;6190150;23;20158;-88
2023/10/30 06:39:35;;;;;;;6.67;1.57;;;;;;;26.88;36.90;99445.41;6216823;23;20231;-88
2023/10/30 06:42:02;;;;;;;4.90;1.20;;;;;;;26.86;36.33;99458.19;6216747;23;20570;-89
2023/10/30 06:44:28;;;;;;;4.87;1.53;;;;;;;26.98;35.85;99454.09;6216611;23;20142;-88
2023/10/30 06:46:55;;;;;;;6.03;1.40;;;;;;;27.15;36.28;99460.22;6216663;23;20150;-88
2023/10/30 06:49:21;;;;;;;3.50;1.13;;;;;;;27.07;35.87;99460.28;6216429;23;20149;-88
2023/10/30 06:51:47;;;;;;;4.77;1.40;;;;;;;26.97;36.38;99460.47;6216677;23;20172;-88
2023/10/30 06:54:13;;;;;;;6.73;1.47;;;;;;;27.16;36.47;99461.88;6216588;23;20248;-88
2023/10/30 06:56:38;;;;;;;4.40;0.97;;;;;;;27.22;35.42;99458.47;6190329;23;20597;-88
2023/10/30 06:59:04;;;;;;;4.67;1.30;;;;;;;27.26;35.53;99467.84;6189976;23;20153;-88
2023/10/30 07:01:43;;;;;;;7.03;1.30;;;;;;;26.92;35.53;99464.72;6217372;23;20163;-88
2023/10/30 07:04:11;;;;;;;5.00;1.70;;;;;;;26.64;36.13;99467.00;6190332;23;20457;-89
2023/10/30 07:06:37;;;;;;;6.97;1.30;;;;;;;26.47;36.57;99462.69;6216595;23;20157;-89
2023/10/30 07:09:06;;;;;;;5.07;1.47;;;;;;;26.35;36.82;99461.41;6216914;23;20157;-89
2023/10/30 07:11:33;;;;;;;2.80;1.03;;;;;;;26.33;36.93;99458.06;6190473;23;20207;-89
2023/10/30 07:13:58;;;;;;;5.80;1.40;;;;;;;26.31;37.22;99455.53;6190716;23;20613;-89
2023/10/30 07:16:24;;;;;;;3.43;1.20;;;;;;;26.32;36.68;99456.38;6190153;23;20196;-89
2023/10/30 07:18:50;;;;;;;6.53;1.73;;;;;;;26.23;36.72;99453.69;6217055;23;20150;-88
2023/10/30 07:21:16;;;;;;;4.90;1.23;;;;;;;26.09;37.15;99456.25;6190135;23;20150;-88
2023/10/30 07:23:41;;;;;;;4.03;1.17;;;;;;;25.96;38.03;99459.47;6190283;23;20233;-89
2023/10/30 07:26:07;;;;;;;3.77;1.57;;;;;;;25.91;37.33;99452.91;6190222;23;20158;-87
2023/10/30 07:28:32;;;;;;;5.03;1.30;;;;;;;25.73;37.24;99463.84;6216232;23;20233;-89
2023/10/30 07:30:57;;;;;;;3.73;1.40;;;;;;;25.58;37.45;99462.81;6190128;23;20157;-89
2023/10/30 07:33:23;;;;;;;5.27;1.33;;;;;;;25.46;37.70;99456.13;6216628;23;20157;-89
2023/10/30 07:35:54;;;;;;;6.83;1.13;;;;;;;25.36;37.65;99452.75;6189959;23;20186;-88
2023/10/30 07:38:20;;;;;;;3.13;1.13;;;;;;;25.13;37.69;99460.56;6216358;23;20156;-88
2023/10/30 07:40:45;;;;;;;4.20;1.30;;;;;;;25.05;38.03;99458.72;6216430;23;20145;-89
2023/10/30 07:43:11;;;;;;;11.13;2.43;;;;;;;24.85;38.52;99457.34;6190281;23;20239;-90
2023/10/30 07:45:43;;;;;;;3.70;1.30;;;;;;;24.70;38.46;99458.94;6190020;23;20149;-90
2023/10/30 07:48:09;;;;;;;9.03;1.60;;;;;;;24.54;39.48;99458.88;6190193;23;20223;-89
2023/10/30 07:50:38;;;;;;;3.43;1.23;;;;;;;24.49;39.16;99463.88;6190040;23;20166;-90
2023/10/30 07:53:06;;;;;;;5.63;1.33;;;;;;;24.43;39.19;99459.16;6189935;23;20158;-90
2023/10/30 07:55:31;;;;;;;4.33;1.27;;;;;;;24.36;39.76;99460.81;6216111;23;20186;-89
2023/10/30 07:57:56;;;;;;;2.50;0.93;;;;;;;24.26;39.81;99460.09;6189528;23;20158;-88
2023/10/30 08:00:22;;;;;;;2.37;1.07;;;;;;;24.34;39.82;99455.59;6190060;23;20189;-89
2023/10/30 08:02:50;;;;;;;3.40;1.20;;;;;;;24.47;39.99;99455.16;6189856;23;20154;-89
2023/10/30 08:05:15;;;;;;;1.77;0.80;;;;;;;24.56;40.20;99448.81;6189787;23;20154;-90
2023/10/30 08:07:44;;;;;;;5.13;1.37;;;;;;;24.63;40.35;99452.56;6189890;23;20236;-90
2023/10/30 08:10:11;;;;;;;2.70;1.20;;;;;;;24.57;39.97;99458.56;6215806;23;20165;-88
2023/10/30 08:12:37;;;;;;;4.87;1.73;;;;;;;24.73;40.17;99465.81;6216654;23;20239;-89
2023/10/30 08:15:03;;;;;;;3.00;1.03;;;;;;;24.99;39.96;99459.41;6215557;23;20188;-90
2023/10/30 08:17:29;;;;;;;7.13;1.30;;;;;;;25.03;39.66;99460.72;6189624;23;20157;-89
2023/10/30 08:19:56;;;;;;;8.37;1.70;;;;;;;25.17;39.33;99451.22;6215829;23;20220;-90
2023/10/30 08:22:22;;;;;;;5.73;1.13;;;;;;;25.37;38.97;99449.03;6190004;23;20264;-88
2023/10/30 08:24:48;;;;;;;3.70;1.60;;;;;;;25.35;38.74;99451.91;6215430;23;20601;-89
2023/10/30 08:27:19;;;;;;;3.53;1.30;;;;;;;25.52;38.23;99450.91;6189928;23;20228;-90
2023/10/30 08:29:44;;;;;;;2.77;1.40;;;;;;;25.49;38.44;99442.38;6189788;23;20154;-90
2023/10/30 08:32:10;;;;;;;6.63;1.50;;;;;;;25.47;38.72;99439.03;6190046;23;20655;-88
2023/10/30 08:34:35;;;;;;;4.67;1.30;;;;;;;25.54;38.30;99448.06;6215665;23;20621;-90
2023/10/30 08:37:03;;;;;;;4.07;1.30;;;;;;;25.87;37.54;99441.66;6189987;23;20158;-90
2023/10/30 08:39:35;;;;;;;9.77;1.80;;;;;;;26.01;38.08;99446.34;6189681;23;20154;-90
2023/10/30 08:42:03;;;;;;;4.83;1.97;;;;;;;26.06;38.07;99444.00;6190662;23;20164;-90
2023/10/30 08:44:31;;;;;;;4.83;1.50;;;;;;;26.19;37.73;99444.31;6215590;23;20615;-89
2023/10/30 08:46:59;;;;;;;5.73;2.10;;;;;;;26.49;37.17;99445.41;6215977;23;20213;-90
2023/10/30 08:49:25;;;;;;;4.35;1.25;;;;;;;26.60;37.02;99446.84;6189851;23;20157;-89
2023/10/30 08:51:51;;;;;;;9.77;1.90;;;;;;;26.96;37.01;99441.84;6189581;23;20595;-90
2023/10/30 08:54:23;;;;;;;3.85;1.42;;;;;;;27.13;37.10;99446.09;6189833;23;20178;-90
2023/10/30 08:56:54;;;;;;;5.63;1.48;;;;;;;27.31;36.39;99436.69;6189827;23;20165;-90
2023/10/30 08:59:24;;;;;;;5.13;1.35;;;;;;;27.43;36.74;99435.31;6190089;23;20584;-90
2023/10/30 09:01:49;;;;;;;5.07;1.60;;;;;;;27.29;36.67;99427.97;6189959;23;20241;-90
2023/10/30 09:04:44;;;;;;;5.05;1.50;;;;;;;27.41;35.93;99429.25;6215689;23;20233;-90
2023/10/30 09:07:12;;;;;;;6.85;1.95;;;;;;;27.41;36.74;99425.75;6176798;23;20245;-90
2023/10/30 09:09:42;;;;;;;6.80;1.80;;;;;;;27.33;36.13;99426.59;6189429;23;20252;-91
2023/10/30 09:12:25;;;;;;;6.50;1.38;;;;;;;27.48;36.35;99425.84;6189634;23;20149;-89
2023/10/30 09:14:52;;;;;;;7.90;1.95;;;;;;;27.58;35.97;99423.72;6190530;23;20678;-90
2023/10/30 09:17:54;;;;;;;;;;;;;;;;;;;;;
2023/10/30 09:20:46;;;;;;;3.72;1.33;;;;;;;28.01;35.26;99421.13;6210802;23;20237;-92
2023/10/30 09:24:02;;;;;;;5.47;1.75;;;;;;;28.22;35.04;99417.72;6215684;23;20465;-91
2023/10/30 09:26:26;;;;;;;2.72;1.10;;;;;;;28.36;34.60;99416.88;6214897;23;20184;-90
2023/10/30 09:28:54;;;;;;;8.77;1.63;;;;;;;28.38;34.52;99417.50;6215470;23;20145;-91
2023/10/30 09:31:22;;;;;;;6.60;1.55;;;;;;;28.45;34.54;99412.22;6215315;23;20187;-91
2023/10/30 09:34:05;;;;;;;6.07;1.40;;;;;;;28.53;34.89;99415.66;6189825;23;20269;-90
2023/10/30 09:36:33;;;;;;;4.03;1.50;;;;;;;28.51;34.70;99406.88;6216779;23;20199;-91
2023/10/30 09:39:17;;;;;;;;;;;;;;;;;;;;;
2023/10/30 09:41:59;;;;;;;5.45;1.10;;;;;;;28.92;34.33;99403.66;6218773;23;20225;-91
2023/10/30 09:44:25;;;;;;;5.88;1.52;;;;;;;28.94;34.95;99401.63;6191757;23;20474;-90
2023/10/30 09:46:51;;;;;;;6.55;1.35;;;;;;;28.99;34.67;99399.16;6217936;23;20263;-90
2023/10/30 09:49:20;;;;;;;7.10;1.92;;;;;;;28.74;35.22;99404.09;6191191;23;20220;-90
2023/10/30 09:52:26;;;;;;;6.55;1.45;;;;;;;28.69;35.25;99392.22;6191651;23;20529;-91
2023/10/30 09:55:11;;;;;;;;;;;;;;;;;;;;;
2023/10/30 09:58:04;;;;;;;6.72;1.70;;;;;;;29.07;34.98;99383.69;6217731;23;20236;-92
2023/10/30 10:04:23;;;;;;;3.92;1.30;;;;;;;29.29;35.00;99379.16;6011077;23;20569;-91
2023/10/30 10:07:08;;;;;;;6.07;2.20;;;;;;;29.25;34.92;99377.88;5987445;23;20199;-90
2023/10/30 10:27:25;;;;;;;5.60;1.70;;;;;;;30.30;33.73;99355.13;5793478;24;20294;-92
2023/10/30 10:30:17;;;;;;;;;;;;;;;;;;;;;
2023/10/30 11:14:07;;;;;;;8.32;1.25;;;;;;;31.79;31.20;99300.56;5675050;25;20241;-91
2023/10/30 11:19:07;;;;;;;3.80;1.15;;;;;;;31.49;31.54;99296.69;5842161;24;20166;-92
2023/10/30 11:21:47;;;;;;;3.53;1.15;;;;;;;31.53;31.50;99287.91;5803012;24;20241;-91
2023/10/30 11:24:56;;;;;;;;;;;;;;;;;;;;;
2023/10/30 11:31:54;;;;;;;10.45;1.63;;;;;;;31.57;32.03;99277.50;5791711;24;20175;-92
2023/10/30 11:34:28;;;;;;;5.35;1.55;;;;;;;31.67;31.53;99277.03;5764868;24;20221;-90
2023/10/30 11:37:15;;;;;;;5.80;1.33;;;;;;;31.66;31.17;99268.06;5933067;23;20148;-91
2023/10/30 11:43:52;;;;;;;6.47;1.40;;;;;;;31.75;30.73;99249.72;6010471;23;20164;-91
2023/10/30 11:46:28;;;;;;;;;;;;;;;;;;;;;
2023/10/30 11:49:27;;;;;;;9.70;1.42;;;;;;;31.86;31.09;99241.75;6010436;23;20214;-94
2023/10/30 11:52:19;;;;;;;2.97;1.10;;;;;;;31.97;30.36;99254.63;5954008;24;20191;-91
2023/10/30 11:55:24;;;;;;;5.80;1.35;;;;;;;31.72;30.44;99242.00;5939762;23;20229;-92
2023/10/30 11:58:04;;;;;;;5.90;1.30;;;;;;;31.71;30.18;99243.06;6009324;23;20269;-90
2023/10/30 12:01:01;;;;;;;5.75;1.40;;;;;;;31.84;29.94;99238.41;6101832;23;20156;-93
2023/10/30 12:04:17;;;;;;;3.53;1.33;;;;;;;31.93;31.07;99226.28;6125990;23;20203;-92
2023/10/30 12:10:15;;;;;;;4.55;1.20;;;;;;;31.88;29.35;99222.56;6037172;23;20265;-88
2023/10/30 12:12:43;;;;;;;5.30;1.27;;;;;;;31.90;30.15;99221.28;6133413;23;20153;-90
2023/10/30 12:15:09;;;;;;;5.90;1.10;;;;;;;31.98;30.80;99217.50;6186596;23;20181;-88
2023/10/30 12:17:34;;;;;;;6.40;1.40;;;;;;;31.84;30.00;99214.00;6185354;23;20449;-86
2023/10/30 12:23:44;;;;;;;3.50;0.80;;;;;;;31.72;30.32;99198.63;6039848;23;20192;-89
2023/10/30 12:26:18;;;;;;;5.53;1.17;;;;;;;31.91;30.31;99201.28;6187048;23;20130;-92
2023/10/30 12:28:43;;;;;;;2.30;0.80;;;;;;;31.58;29.81;99200.56;6186657;23;20157;-90
2023/10/30 12:31:35;;;;;;;8.27;1.45;;;;;;;31.25;30.18;99205.19;6186255;23;20146;-87
2023/10/30 12:37:48;;;;;;;4.65;0.93;;;;;;;31.06;30.92;99196.06;6101936;23;20174;-91
2023/10/30 12:40:14;;;;;;;3.17;1.00;;;;;;;30.62;31.28;99183.13;6184326;23;20600;-89
2023/10/30 12:43:28;;;;;;;4.18;1.25;;;;;;;30.89;31.29;99183.97;6185146;23;20155;-90
2023/10/30 12:45:37;;;;;;;5.78;1.13;;;;;;;30.98;31.23;99177.31;6173668;23;20147;-90
2023/10/30 12:48:20;;;;;;;9.25;1.83;;;;;;;31.10;31.52;99167.53;6185034;23;20154;-91
2023/10/30 12:50:46;;;;;;;9.15;1.75;;;;;;;31.46;31.40;99172.47;6185058;23;20153;-90
2023/10/30 12:53:59;;;;;;;7.22;1.20;;;;;;;31.68;30.89;99167.59;6184979;23;20473;-89
2023/10/30 12:56:24;;;;;;;3.38;1.00;;;;;;;31.76;30.84;99170.88;6184854;23;20173;-87
2023/10/30 12:58:50;;;;;;;2.72;1.05;;;;;;;31.78;30.03;99162.53;6185705;23;20150;-88
2023/10/30 13:01:15;;;;;;;3.38;0.73;;;;;;;31.28;30.55;99161.44;6185509;23;20158;-88
2023/10/30 13:03:41;;;;;;;2.53;0.68;;;;;;;31.37;30.82;99160.97;6184698;23;20158;-89
2023/10/30 13:06:06;;;;;;;6.72;1.05;;;;;;;31.20;31.05;99148.13;6184243;23;20162;-89
2023/10/30 13:08:39;;;;;;;6.38;1.23;;;;;;;31.08;31.28;99145.22;6186024;23;20178;-90
2023/10/30 13:11:05;;;;;;;2.08;0.60;;;;;;;31.17;30.58;99153.97;6201248;23;20197;-90
2023/10/30 13:13:31;;;;;;;4.43;0.90;;;;;;;31.03;30.76;99137.72;6189547;23;20180;-88